Time;durP1;ratioP1;P1;durP2;ratioP2;P2;SDS_P1;SDS_P2;PMS_P1;PMS_P2;Temp;Humidity;BMP_temperature;BMP_pressure;BME280_temperature;BME280_humidity;BME280_pressure;Samples;Min_cycle;Max_cycle;Signal;HPM_P1;HPM_P2
2021/07/26 00:01:50;;;;;;;12.98;10.00;;;;;;;25.53;42.16;100992.63;5034027;28;20061;-78
2021/07/26 00:04:15;;;;;;;10.90;9.40;;;;;;;25.55;42.12;100995.84;5033862;28;20022;-83
2021/07/26 00:06:43;;;;;;;14.70;9.90;;;;;;;25.54;41.97;100996.22;5032534;28;20032;-82
2021/07/26 00:09:09;;;;;;;14.30;9.95;;;;;;;25.43;41.74;100985.91;5033854;28;20049;-80
2021/07/26 00:11:35;;;;;;;8.25;7.45;;;;;;;25.40;41.31;100992.34;5032695;28;20483;-79
2021/07/26 00:14:00;;;;;;;8.40;7.47;;;;;;;25.31;41.10;100985.56;5033723;28;20380;-79
2021/07/26 00:16:26;;;;;;;11.70;9.75;;;;;;;25.22;40.78;100985.22;5033650;28;20101;-79
2021/07/26 00:18:52;;;;;;;14.48;10.52;;;;;;;25.25;40.86;100988.03;5033599;28;20032;-79
2021/07/26 00:21:17;;;;;;;12.13;10.02;;;;;;;25.22;41.49;100991.63;5033601;28;20091;-79
2021/07/26 00:23:43;;;;;;;11.63;10.15;;;;;;;25.28;41.59;100989.19;5033653;28;20163;-79
2021/07/26 00:26:09;;;;;;;11.82;9.45;;;;;;;25.17;42.02;100983.66;5032304;28;20392;-79
2021/07/26 00:28:35;;;;;;;12.77;11.30;;;;;;;25.15;42.06;100978.47;5033459;28;20032;-79
2021/07/26 00:31:01;;;;;;;14.05;10.02;;;;;;;25.03;42.16;100972.53;5033453;28;20032;-80
2021/07/26 00:34:20;;;;;;;11.48;10.02;;;;;;;25.24;41.94;100977.22;5032082;28;20036;-79
2021/07/26 00:36:51;;;;;;;13.18;10.15;;;;;;;25.08;42.19;100978.50;5029571;28;20044;-79
2021/07/26 00:39:19;;;;;;;10.98;9.65;;;;;;;25.03;41.85;100970.56;5032711;28;20022;-79
2021/07/26 00:41:47;;;;;;;12.70;10.88;;;;;;;24.90;42.30;100972.16;5033208;28;20026;-79
2021/07/26 00:44:13;;;;;;;11.90;10.02;;;;;;;24.79;42.22;100966.63;5033116;28;20064;-79
2021/07/26 00:46:40;;;;;;;10.80;9.60;;;;;;;24.70;42.54;100969.03;5033119;28;20022;-79
2021/07/26 00:49:08;;;;;;;13.35;10.00;;;;;;;24.68;42.82;100970.66;5033185;28;20495;-80
2021/07/26 00:51:35;;;;;;;12.20;9.80;;;;;;;24.69;42.33;100975.03;5032994;28;20492;-78
2021/07/26 00:54:02;;;;;;;11.95;10.30;;;;;;;24.65;42.52;100980.66;5032816;28;20021;-79
2021/07/26 00:56:28;;;;;;;12.80;9.52;;;;;;;24.77;42.30;100968.22;5032813;28;20025;-79
2021/07/26 00:58:54;;;;;;;12.65;9.98;;;;;;;24.79;42.14;100969.41;5032831;28;20048;-79
2021/07/26 01:01:20;;;;;;;10.40;9.40;;;;;;;24.72;41.97;100968.66;5032443;28;20033;-79
2021/07/26 01:03:46;;;;;;;12.35;10.82;;;;;;;24.67;42.39;100966.25;5032873;28;20582;-78
2021/07/26 01:06:12;;;;;;;11.90;8.75;;;;;;;24.71;42.15;100962.28;5032678;28;20391;-78
2021/07/26 01:08:38;;;;;;;16.85;9.90;;;;;;;24.67;42.05;100975.44;5031532;28;20115;-79
2021/07/26 01:11:05;;;;;;;16.05;9.52;;;;;;;24.69;42.28;100970.25;5032649;28;20061;-78
2021/07/26 01:13:31;;;;;;;11.65;8.88;;;;;;;24.74;42.00;100969.84;5032636;28;20021;-78
2021/07/26 01:15:58;;;;;;;15.15;10.30;;;;;;;24.79;41.63;100963.84;5032693;28;20387;-79
2021/07/26 01:18:25;;;;;;;11.45;10.23;;;;;;;24.63;41.54;100978.22;5032599;28;20668;-78
2021/07/26 01:20:55;;;;;;;10.80;9.00;;;;;;;24.45;41.96;100976.69;5032638;28;20500;-79
2021/07/26 01:23:22;;;;;;;10.90;9.32;;;;;;;24.48;41.73;100981.47;5032482;28;20048;-79
2021/07/26 01:25:50;;;;;;;12.57;9.65;;;;;;;24.45;41.78;100982.28;5032600;28;20518;-78
2021/07/26 01:28:17;;;;;;;10.23;8.70;;;;;;;24.40;41.84;100977.88;5031190;28;20032;-79
2021/07/26 01:30:44;;;;;;;13.05;9.40;;;;;;;24.42;41.53;100972.72;5031325;28;20025;-79
2021/07/26 01:33:11;;;;;;;10.77;9.10;;;;;;;24.42;41.94;100983.09;5032382;28;20112;-79
2021/07/26 01:35:38;;;;;;;9.50;8.55;;;;;;;24.26;42.37;100980.69;5032523;28;20380;-79
2021/07/26 01:38:04;;;;;;;11.63;9.75;;;;;;;24.16;42.30;100987.84;5031932;28;20211;-79
2021/07/26 01:40:34;;;;;;;9.90;8.90;;;;;;;24.10;42.16;100981.06;5032218;28;20073;-79
2021/07/26 01:43:03;;;;;;;10.10;8.63;;;;;;;24.11;42.39;100981.88;5032424;28;20050;-78
2021/07/26 01:45:32;;;;;;;11.43;8.52;;;;;;;24.09;42.08;100971.91;5032339;28;20032;-78
2021/07/26 01:48:30;;;;;;;12.55;9.00;;;;;;;24.14;41.81;100975.50;5032425;28;20029;-78
2021/07/26 01:51:11;;;;;;;11.77;9.15;;;;;;;23.98;42.00;100979.50;5016861;28;20041;-78
2021/07/26 01:53:37;;;;;;;12.38;8.80;;;;;;;23.96;41.86;100969.94;5036344;28;20025;-79
2021/07/26 01:56:03;;;;;;;11.38;8.73;;;;;;;23.85;42.30;100975.50;5036312;28;20022;-78
2021/07/26 01:58:29;;;;;;;13.20;9.82;;;;;;;23.68;42.15;100977.09;5036159;28;20518;-78
2021/07/26 02:00:55;;;;;;;12.32;9.48;;;;;;;23.57;42.72;100979.03;5036244;28;20029;-79
2021/07/26 02:03:20;;;;;;;13.25;9.75;;;;;;;23.55;42.72;100978.63;5036119;28;20100;-78
2021/07/26 02:05:46;;;;;;;14.77;9.35;;;;;;;23.53;42.99;100976.25;5036005;28;20029;-78
2021/07/26 02:08:11;;;;;;;13.63;9.90;;;;;;;23.55;43.12;100973.06;5035914;28;20029;-78
2021/07/26 02:10:37;;;;;;;10.57;8.93;;;;;;;23.61;43.05;100976.28;5036010;28;20025;-79
2021/07/26 02:13:02;;;;;;;9.50;8.07;;;;;;;23.61;43.21;100970.72;5035926;28;20072;-79
2021/07/26 02:15:28;;;;;;;13.35;9.75;;;;;;;23.52;43.29;100965.50;5035825;28;20083;-80
2021/07/26 02:17:53;;;;;;;10.75;9.30;;;;;;;23.55;43.33;100964.69;5035839;28;20029;-78
2021/07/26 02:20:20;;;;;;;11.63;9.25;;;;;;;23.44;43.59;100961.09;5035712;28;20098;-78
2021/07/26 02:22:46;;;;;;;14.38;10.05;;;;;;;23.57;42.97;100962.28;5035756;28;20557;-78
2021/07/26 02:25:12;;;;;;;12.70;9.30;;;;;;;23.45;43.54;100966.28;5035739;28;20021;-78
2021/07/26 02:27:38;;;;;;;11.63;9.20;;;;;;;23.40;43.62;100963.84;5035688;28;20025;-81
2021/07/26 02:30:04;;;;;;;12.18;9.77;;;;;;;23.37;43.59;100961.88;5034568;28;20083;-78
2021/07/26 02:32:29;;;;;;;16.00;10.15;;;;;;;23.35;43.47;100955.91;5035716;28;20026;-79
2021/07/26 02:34:55;;;;;;;11.50;9.55;;;;;;;23.38;42.99;100952.31;5034318;28;20025;-80
2021/07/26 02:37:20;;;;;;;12.05;10.02;;;;;;;23.36;42.97;100959.47;5033918;28;20096;-78
2021/07/26 02:39:46;;;;;;;11.82;8.90;;;;;;;23.27;43.24;100957.06;5035377;28;20025;-80
2021/07/26 02:42:12;;;;;;;10.02;8.65;;;;;;;23.31;42.93;100948.72;5034222;28;20163;-79
2021/07/26 02:44:38;;;;;;;16.15;10.27;;;;;;;23.28;43.18;100955.09;5034117;28;20021;-79
2021/07/26 02:47:04;;;;;;;18.45;10.85;;;;;;;23.30;43.25;100958.28;5035739;28;20029;-79
2021/07/26 02:49:30;;;;;;;12.82;9.95;;;;;;;23.34;42.95;100961.84;5034463;28;20386;-80
2021/07/26 02:51:55;;;;;;;12.82;10.05;;;;;;;23.33;43.05;100958.25;5034389;28;20021;-79
2021/07/26 02:54:21;;;;;;;12.75;11.15;;;;;;;23.32;42.96;100965.03;5035659;28;20021;-79
2021/07/26 02:56:47;;;;;;;14.50;10.20;;;;;;;23.14;43.90;100961.41;5034311;28;20045;-78
2021/07/26 02:59:12;;;;;;;13.05;9.38;;;;;;;23.14;44.03;100953.84;5035095;28;20108;-78
2021/07/26 03:01:38;;;;;;;15.60;10.48;;;;;;;23.23;44.05;100953.47;5035138;28;20060;-79
2021/07/26 03:04:04;;;;;;;11.77;10.43;;;;;;;23.26;43.77;100947.88;5035218;28;20026;-78
2021/07/26 03:06:30;;;;;;;11.52;9.85;;;;;;;23.41;43.38;100947.91;5034975;28;20031;-80
2021/07/26 03:08:56;;;;;;;13.20;8.82;;;;;;;23.43;43.56;100951.13;5035159;28;20021;-78
2021/07/26 03:11:21;;;;;;;13.43;9.95;;;;;;;23.42;43.47;100960.66;5034640;28;20026;-83
2021/07/26 03:13:47;;;;;;;12.45;9.82;;;;;;;23.38;43.25;100960.69;5034627;28;20033;-79
2021/07/26 03:16:14;;;;;;;12.82;9.60;;;;;;;23.36;43.38;100956.69;5034931;28;20030;-81
2021/07/26 03:18:40;;;;;;;12.45;10.18;;;;;;;23.44;43.17;100964.69;5034868;28;20022;-80
2021/07/26 03:21:06;;;;;;;11.50;8.57;;;;;;;23.32;43.67;100956.66;5034343;28;20080;-79
2021/07/26 03:23:32;;;;;;;10.07;8.82;;;;;;;23.34;43.26;100961.84;5033736;28;20022;-79
2021/07/26 03:25:58;;;;;;;15.50;9.90;;;;;;;23.34;43.39;100959.84;5034734;28;20032;-78
2021/07/26 03:28:23;;;;;;;10.52;9.10;;;;;;;23.33;43.70;100958.25;5034644;28;20040;-79
2021/07/26 03:30:49;;;;;;;13.25;9.57;;;;;;;23.26;43.39;100964.63;5033567;28;20476;-79
2021/07/26 03:33:15;;;;;;;13.88;8.70;;;;;;;23.10;43.74;100955.81;5034752;28;20029;-81
2021/07/26 03:35:40;;;;;;;12.23;9.40;;;;;;;23.11;43.90;100956.59;5034586;28;20025;-78
2021/07/26 03:38:06;;;;;;;13.07;9.63;;;;;;;23.09;43.88;100954.22;5034178;28;20049;-78
2021/07/26 03:40:33;;;;;;;16.75;10.68;;;;;;;22.94;43.87;100956.16;5034394;28;20383;-78
2021/07/26 03:42:58;;;;;;;14.98;9.63;;;;;;;22.91;44.04;100959.75;5033107;28;20025;-79
2021/07/26 03:45:24;;;;;;;10.32;9.15;;;;;;;22.90;43.95;100954.56;5034223;28;20509;-82
2021/07/26 03:47:50;;;;;;;10.80;9.18;;;;;;;22.82;44.14;100961.22;5034342;28;20029;-78
2021/07/26 03:50:18;;;;;;;12.85;9.07;;;;;;;22.69;44.57;100958.00;5034449;28;20105;-79
2021/07/26 03:52:45;;;;;;;12.68;9.02;;;;;;;22.61;44.76;100951.59;5033454;28;20502;-79
2021/07/26 03:55:13;;;;;;;13.80;9.25;;;;;;;22.62;45.00;100961.56;5045768;28;20025;-78
2021/07/26 03:57:39;;;;;;;12.23;9.40;;;;;;;22.68;44.88;100960.00;5054105;28;20105;-79
2021/07/26 04:00:05;;;;;;;12.05;9.23;;;;;;;22.68;45.04;100962.00;5052657;28;20535;-78
2021/07/26 04:02:30;;;;;;;12.52;8.57;;;;;;;22.82;44.64;100964.84;5054131;28;20380;-78
2021/07/26 04:04:56;;;;;;;13.73;9.98;;;;;;;22.91;44.30;100967.31;5053865;28;20029;-80
2021/07/26 04:07:24;;;;;;;20.67;10.15;;;;;;;22.94;44.14;100969.28;5053947;28;20021;-78
2021/07/26 04:09:56;;;;;;;14.90;9.18;;;;;;;23.02;44.19;100968.13;5053824;28;20105;-78
2021/07/26 04:12:25;;;;;;;14.48;9.70;;;;;;;23.05;43.86;100959.00;5053632;28;20036;-78
2021/07/26 04:14:51;;;;;;;13.05;9.20;;;;;;;23.06;43.98;100970.94;5053058;28;20028;-78
2021/07/26 04:17:16;;;;;;;14.38;9.02;;;;;;;23.01;43.77;100958.19;5053343;28;20372;-80
2021/07/26 04:19:42;;;;;;;19.80;10.40;;;;;;;22.96;43.59;100967.69;5053463;28;20033;-78
2021/07/26 04:22:08;;;;;;;18.33;9.73;;;;;;;22.85;44.22;100971.63;5053487;28;20021;-79
2021/07/26 04:24:33;;;;;;;19.33;10.38;;;;;;;23.03;43.61;100972.50;5053456;28;20039;-78
2021/07/26 04:26:59;;;;;;;16.00;9.73;;;;;;;22.89;43.89;100975.22;5053401;28;20032;-79
2021/07/26 04:29:25;;;;;;;13.20;8.85;;;;;;;22.85;44.25;100980.81;5053353;28;20033;-79
2021/07/26 04:31:50;;;;;;;16.75;9.82;;;;;;;22.75;44.16;100978.75;5053175;28;20108;-80
2021/07/26 04:34:17;;;;;;;15.57;9.20;;;;;;;22.78;44.08;100975.16;5053396;28;20055;-79
2021/07/26 04:36:43;;;;;;;16.05;9.63;;;;;;;22.81;44.14;100977.16;5053206;28;20037;-78
2021/07/26 04:39:08;;;;;;;13.63;9.93;;;;;;;22.87;44.08;100972.03;5053308;28;20021;-78
2021/07/26 04:41:35;;;;;;;16.52;10.20;;;;;;;22.92;43.90;100969.69;5053364;28;20028;-79
2021/07/26 04:44:01;;;;;;;16.65;9.85;;;;;;;22.88;44.03;100970.84;5053148;28;20029;-79
2021/07/26 04:46:27;;;;;;;29.58;12.43;;;;;;;22.82;44.11;100977.94;5053138;28;20025;-77
2021/07/26 04:48:52;;;;;;;20.27;10.68;;;;;;;22.84;43.84;100972.81;5052791;28;20028;-77
2021/07/26 04:51:18;;;;;;;30.40;10.95;;;;;;;22.78;44.00;100972.38;5051727;28;20032;-77
2021/07/26 04:53:43;;;;;;;18.58;10.25;;;;;;;22.83;43.98;100955.28;5053210;28;20036;-77
2021/07/26 04:56:09;;;;;;;14.00;9.30;;;;;;;22.88;44.14;100963.28;5051869;28;20028;-77
2021/07/26 04:58:34;;;;;;;12.95;9.75;;;;;;;22.98;43.75;100964.53;5053050;28;20099;-77
2021/07/26 05:01:00;;;;;;;18.98;10.07;;;;;;;22.86;44.16;100962.88;5052921;28;20466;-78
2021/07/26 05:03:26;;;;;;;17.08;10.48;;;;;;;22.97;43.92;100960.13;5052811;28;20028;-77
2021/07/26 05:05:51;;;;;;;17.48;11.05;;;;;;;23.11;43.89;100960.19;5052696;28;20032;-77
2021/07/26 05:08:17;;;;;;;13.40;10.43;;;;;;;23.09;44.03;100962.59;5052834;28;20032;-77
2021/07/26 05:10:47;;;;;;;16.13;10.38;;;;;;;23.18;43.63;100953.84;5052733;28;20662;-81
2021/07/26 05:13:13;;;;;;;16.95;10.40;;;;;;;23.12;43.93;100959.00;5052859;28;20025;-81
2021/07/26 05:15:39;;;;;;;27.23;13.55;;;;;;;23.01;44.28;100955.38;5051633;28;20091;-78
2021/07/26 05:18:06;;;;;;;16.10;9.55;;;;;;;23.23;43.71;100964.63;5052632;28;20033;-78
2021/07/26 05:20:34;;;;;;;18.35;11.98;;;;;;;23.24;43.80;100958.66;5052645;28;20044;-78
2021/07/26 05:23:00;;;;;;;17.30;10.98;;;;;;;23.37;43.45;100961.06;5052608;28;20483;-79
2021/07/26 05:25:25;;;;;;;22.02;10.70;;;;;;;23.39;43.47;100967.03;5052540;28;20078;-79
2021/07/26 05:27:51;;;;;;;14.48;11.02;;;;;;;23.32;43.59;100961.44;5051675;28;20475;-79
2021/07/26 05:30:17;;;;;;;15.70;10.05;;;;;;;23.32;43.68;100962.25;5050399;28;20036;-78
2021/07/26 05:32:42;;;;;;;17.42;10.35;;;;;;;23.36;43.71;100956.69;5052424;28;20029;-79
2021/07/26 05:35:08;;;;;;;18.27;10.95;;;;;;;23.36;43.79;100965.06;5052238;28;20172;-79
2021/07/26 05:37:35;;;;;;;82.25;17.88;;;;;;;23.34;43.96;100967.41;5052221;28;20095;-78
2021/07/26 05:40:01;;;;;;;23.60;10.70;;;;;;;23.46;43.92;100967.06;5052116;28;20037;-82
2021/07/26 05:42:26;;;;;;;14.93;10.68;;;;;;;23.34;44.41;100973.00;5052380;28;20104;-78
2021/07/26 05:44:53;;;;;;;19.75;11.70;;;;;;;23.32;44.45;100969.81;5052177;28;20025;-78
2021/07/26 05:47:19;;;;;;;15.50;10.43;;;;;;;23.38;44.74;100971.03;5051067;28;20029;-77
2021/07/26 05:49:44;;;;;;;18.85;11.70;;;;;;;23.27;45.23;100965.41;5050762;28;20040;-78
2021/07/26 05:52:10;;;;;;;18.98;10.85;;;;;;;23.40;45.04;100969.44;5052185;28;20033;-78
2021/07/26 05:54:35;;;;;;;16.90;10.80;;;;;;;23.48;45.46;100971.03;5052327;28;20025;-77
2021/07/26 05:57:07;;;;;;;19.63;12.35;;;;;;;23.60;45.55;100967.13;5051052;28;20544;-77
2021/07/26 05:59:33;;;;;;;14.15;10.30;;;;;;;23.82;45.29;100961.56;5050885;28;20040;-77
2021/07/26 06:01:59;;;;;;;18.35;11.60;;;;;;;23.93;45.32;100956.78;5051004;28;20037;-79
2021/07/26 06:04:25;;;;;;;16.75;11.27;;;;;;;24.06;45.83;100961.56;5052262;28;20422;-77
2021/07/26 06:06:52;;;;;;;14.25;10.73;;;;;;;24.21;45.62;100967.91;5052087;28;20030;-78
2021/07/26 06:09:19;;;;;;;16.67;11.55;;;;;;;24.12;45.90;100969.53;5051959;28;20039;-79
2021/07/26 06:11:45;;;;;;;16.92;11.77;;;;;;;24.09;45.92;100968.31;5052355;28;20390;-77
2021/07/26 06:14:12;;;;;;;16.83;12.05;;;;;;;24.18;45.87;100965.13;5052054;28;20074;-78
2021/07/26 06:16:42;;;;;;;18.98;12.82;;;;;;;24.16;46.15;100959.94;5051938;28;20029;-78
2021/07/26 06:19:09;;;;;;;27.33;11.27;;;;;;;24.22;45.86;100961.13;5050755;28;20025;-77
2021/07/26 06:21:54;;;;;;;16.50;10.73;;;;;;;24.32;45.94;100962.31;5051983;28;20025;-78
2021/07/26 06:24:21;;;;;;;12.63;11.27;;;;;;;24.28;45.97;100967.13;5051884;28;20032;-77
2021/07/26 06:26:46;;;;;;;18.23;12.10;;;;;;;24.29;46.01;100966.72;5051932;28;20364;-77
2021/07/26 06:29:13;;;;;;;17.65;11.38;;;;;;;24.34;46.30;100966.34;5051942;28;20036;-78
2021/07/26 06:31:39;;;;;;;14.68;11.63;;;;;;;24.22;46.46;100965.94;5052106;28;20383;-77
2021/07/26 06:34:05;;;;;;;12.63;10.52;;;;;;;24.29;46.44;100968.72;5052000;28;20033;-80
2021/07/26 06:36:31;;;;;;;23.77;11.48;;;;;;;24.38;46.34;100957.94;5051825;28;20112;-78
2021/07/26 06:38:58;;;;;;;12.95;10.63;;;;;;;24.33;46.32;100964.75;5055446;28;20067;-77
2021/07/26 06:41:24;;;;;;;14.43;10.40;;;;;;;24.47;46.18;100972.28;5055541;28;20033;-80
2021/07/26 06:43:51;;;;;;;13.60;10.38;;;;;;;24.66;45.98;100973.06;5055519;28;20432;-78
2021/07/26 06:46:16;;;;;;;15.02;9.93;;;;;;;24.88;45.99;100969.78;5055376;28;20463;-83
2021/07/26 06:48:42;;;;;;;12.93;9.68;;;;;;;25.08;45.48;100961.72;5055414;28;20064;-78
2021/07/26 06:51:07;;;;;;;13.65;9.95;;;;;;;25.23;45.76;100959.66;5055283;28;20057;-79
2021/07/26 06:53:33;;;;;;;11.98;10.35;;;;;;;25.39;44.94;100957.19;5055217;28;20037;-77
2021/07/26 06:56:07;;;;;;;12.75;10.18;;;;;;;25.38;44.99;100961.16;5055274;28;20028;-78
2021/07/26 06:58:32;;;;;;;15.27;9.93;;;;;;;25.50;44.89;100956.31;5054860;28;20120;-77
2021/07/26 07:01:03;;;;;;;12.77;9.73;;;;;;;25.59;44.30;100968.63;5055215;28;20493;-81
2021/07/26 07:03:29;;;;;;;17.90;10.25;;;;;;;25.63;44.25;100968.63;5055343;28;20028;-87
2021/07/26 07:06:03;;;;;;;14.95;10.45;;;;;;;25.75;44.06;100967.34;5054838;28;20395;-82
2021/07/26 07:08:29;;;;;;;22.48;11.18;;;;;;;25.71;44.22;100958.97;5055445;28;20059;-82
2021/07/26 07:11:08;;;;;;;17.60;11.20;;;;;;;25.65;44.03;100963.38;5054852;28;20032;-81
2021/07/26 07:13:35;;;;;;;12.53;10.03;;;;;;;25.85;43.54;100966.47;5053968;28;20730;-86
2021/07/26 07:16:01;;;;;;;29.58;11.50;;;;;;;25.86;43.89;100966.06;5055159;28;20674;-80
2021/07/26 07:18:27;;;;;;;14.77;10.77;;;;;;;25.85;43.77;100967.28;5053776;28;20037;-85
2021/07/26 07:20:53;;;;;;;11.93;9.90;;;;;;;26.05;43.23;100969.50;5053833;28;20198;-86
2021/07/26 07:23:19;;;;;;;12.50;9.30;;;;;;;26.13;43.10;100971.03;5054218;28;20067;-80
2021/07/26 07:25:45;;;;;;;12.73;9.13;;;;;;;26.14;43.24;100972.59;5054781;28;20035;-79
2021/07/26 07:28:11;;;;;;;13.82;9.60;;;;;;;25.98;43.42;100981.53;5052366;28;20033;-78
2021/07/26 07:30:36;;;;;;;12.73;8.80;;;;;;;26.02;43.24;100981.53;5047978;28;20049;-78
2021/07/26 07:33:02;;;;;;;13.15;8.57;;;;;;;25.90;43.30;100977.22;5052307;28;20037;-80
2021/07/26 07:35:28;;;;;;;15.35;10.50;;;;;;;25.69;43.44;100978.13;5054337;28;20036;-79
2021/07/26 07:37:54;;;;;;;11.40;8.93;;;;;;;25.69;43.72;100978.13;5054569;28;20059;-80
2021/07/26 07:40:22;;;;;;;18.23;9.50;;;;;;;25.87;43.24;100973.25;5053926;28;20033;-80
2021/07/26 07:42:48;;;;;;;14.30;9.45;;;;;;;26.01;42.97;100983.53;5053250;28;20033;-80
2021/07/26 07:45:14;;;;;;;37.03;10.82;;;;;;;26.05;42.75;100981.50;5054442;28;20051;-80
2021/07/26 07:47:40;;;;;;;12.35;11.10;;;;;;;25.99;42.83;100971.94;5054435;28;20021;-82
2021/07/26 07:50:12;;;;;;;13.48;9.65;;;;;;;25.85;43.01;100978.47;5044919;28;20030;-80
2021/07/26 07:52:38;;;;;;;11.30;9.15;;;;;;;25.84;42.79;100976.06;5051106;28;20135;-81
2021/07/26 07:55:05;;;;;;;16.23;9.35;;;;;;;25.97;42.33;100971.56;5048474;28;20040;-79
2021/07/26 07:57:32;;;;;;;13.73;8.70;;;;;;;26.15;42.48;100979.81;5039609;28;20107;-79
2021/07/26 07:59:57;;;;;;;10.23;8.82;;;;;;;26.07;42.71;100981.88;5041715;28;20037;-78
2021/07/26 08:02:23;;;;;;;11.55;8.73;;;;;;;26.19;42.20;100986.97;5037595;28;20060;-80
2021/07/26 08:04:50;;;;;;;10.65;8.95;;;;;;;26.31;41.96;100988.47;5039581;28;20025;-78
2021/07/26 08:07:16;;;;;;;11.07;8.25;;;;;;;26.43;41.79;100978.75;5042004;28;20045;-78
2021/07/26 08:09:44;;;;;;;14.38;8.70;;;;;;;26.43;42.10;100985.16;5041854;28;20017;-78
2021/07/26 08:12:09;;;;;;;22.05;9.65;;;;;;;26.32;41.85;100978.06;5040686;28;20544;-80
2021/07/26 08:14:35;;;;;;;14.82;8.85;;;;;;;26.31;41.44;100982.06;5040662;28;20021;-78
2021/07/26 08:17:04;;;;;;;14.43;8.70;;;;;;;26.23;41.72;100984.94;5035177;28;20065;-81
2021/07/26 08:19:30;;;;;;;11.63;8.20;;;;;;;26.09;42.22;100984.28;5034860;28;20025;-81
2021/07/26 08:21:56;;;;;;;12.68;9.88;;;;;;;26.13;42.17;100985.03;5038753;28;20087;-86
2021/07/26 08:24:21;;;;;;;18.02;9.57;;;;;;;26.03;41.92;100977.53;5038704;28;20136;-80
2021/07/26 08:26:47;;;;;;;27.95;11.07;;;;;;;26.02;42.33;100975.94;5040710;28;20120;-78
2021/07/26 08:29:12;;;;;;;17.52;10.38;;;;;;;26.09;42.01;100979.47;5043244;28;20040;-78
2021/07/26 08:31:38;;;;;;;18.63;11.73;;;;;;;26.04;42.41;100979.91;5039531;28;20045;-79
2021/07/26 08:34:03;;;;;;;16.25;11.07;;;;;;;26.02;42.44;100981.53;5032458;28;20037;-79
2021/07/26 08:36:29;;;;;;;14.35;10.48;;;;;;;26.14;42.08;100981.00;5037282;28;20025;-79
2021/07/26 08:38:55;;;;;;;33.72;12.00;;;;;;;26.15;41.80;100982.63;5037028;28;20028;-78
2021/07/26 08:41:21;;;;;;;22.17;10.50;;;;;;;26.16;41.89;100982.19;5035223;28;21292;-78
2021/07/26 08:43:47;;;;;;;21.58;10.40;;;;;;;26.01;42.29;100989.13;5038282;28;20415;-78
2021/07/26 08:46:17;;;;;;;14.57;10.73;;;;;;;26.05;42.31;100984.28;5036394;28;20028;-78
2021/07/26 08:48:45;;;;;;;11.30;9.48;;;;;;;26.20;42.10;100984.97;5040493;28;20029;-78
2021/07/26 08:51:14;;;;;;;14.10;10.50;;;;;;;26.13;42.29;100976.63;5038213;28;20037;-78
2021/07/26 08:53:39;;;;;;;16.00;9.30;;;;;;;26.22;42.09;100985.34;5037642;28;20030;-78
2021/07/26 08:56:06;;;;;;;15.65;9.25;;;;;;;26.39;41.81;100978.81;5040241;28;20025;-78
2021/07/26 08:58:32;;;;;;;51.03;12.85;;;;;;;26.32;42.29;100972.44;5039031;28;20040;-79
2021/07/26 09:00:57;;;;;;;17.80;10.23;;;;;;;26.39;42.32;100984.41;5038491;28;20033;-78
2021/07/26 09:03:23;;;;;;;13.68;9.73;;;;;;;26.34;42.01;100978.44;5040015;28;20029;-79
2021/07/26 09:05:49;;;;;;;11.32;8.90;;;;;;;26.49;42.08;100977.91;5037345;28;20017;-79
2021/07/26 09:08:14;;;;;;;25.50;10.30;;;;;;;26.58;41.85;100979.41;5037483;28;20043;-85
2021/07/26 09:10:43;;;;;;;11.90;9.50;;;;;;;26.35;42.23;100980.81;5039227;28;20021;-89
2021/07/26 09:13:12;;;;;;;17.10;8.43;;;;;;;26.36;42.31;100979.59;5039034;28;20086;-78
2021/07/26 09:15:37;;;;;;;15.43;9.93;;;;;;;26.42;42.34;100982.78;5033680;28;20082;-81
2021/07/26 09:18:07;;;;;;;24.90;10.63;;;;;;;26.60;41.79;100965.75;5026947;28;20044;-77
2021/07/26 09:20:35;;;;;;;16.38;10.10;;;;;;;26.63;42.10;100976.16;5024983;28;20036;-78
2021/07/26 09:23:13;;;;;;;12.13;8.23;;;;;;;26.71;41.85;100966.47;5025144;28;20029;-82
2021/07/26 09:25:42;;;;;;;17.77;9.90;;;;;;;26.82;41.48;100961.50;5029354;28;20027;-80
2021/07/26 09:28:20;;;;;;;10.80;9.27;;;;;;;26.64;41.77;100966.53;5033159;28;20103;-81
2021/07/26 09:30:48;;;;;;;11.52;8.18;;;;;;;26.93;41.12;100956.56;5033738;28;20288;-80
2021/07/26 09:33:23;;;;;;;12.02;9.85;;;;;;;27.05;41.07;100958.84;5016382;28;20037;-81
2021/07/26 09:36:02;;;;;;;14.93;8.55;;;;;;;27.30;40.32;100960.53;5030336;28;20944;-80
2021/07/26 09:38:27;;;;;;;13.63;8.70;;;;;;;27.33;40.20;100968.09;5029841;28;20626;-81
2021/07/26 09:40:53;;;;;;;10.55;8.35;;;;;;;27.40;40.26;100959.56;5030741;28;20128;-80
2021/07/26 09:43:24;;;;;;;10.90;8.35;;;;;;;27.37;40.28;100955.59;5033831;28;20123;-79
2021/07/26 09:45:52;;;;;;;13.10;8.35;;;;;;;27.33;40.47;100949.22;5033177;28;20059;-79
2021/07/26 09:48:23;;;;;;;11.85;7.85;;;;;;;27.44;40.27;100951.91;5028521;28;20041;-82
2021/07/26 09:50:52;;;;;;;23.83;9.82;;;;;;;27.42;40.12;100956.31;5024646;28;20372;-80
2021/07/26 09:53:22;;;;;;;13.20;9.20;;;;;;;27.42;39.96;100956.31;5023338;28;20072;-81
2021/07/26 09:55:50;;;;;;;11.40;7.57;;;;;;;27.66;39.76;100957.97;5022621;28;20121;-80
2021/07/26 09:58:18;;;;;;;14.48;7.85;;;;;;;27.81;39.88;100950.13;5027173;28;20194;-81
2021/07/26 10:00:45;;;;;;;10.05;7.88;;;;;;;27.90;39.38;100950.41;5028934;28;20025;-81
2021/07/26 10:03:12;;;;;;;11.73;7.05;;;;;;;28.08;39.05;100955.69;5026607;28;20040;-81
2021/07/26 10:05:41;;;;;;;11.77;7.13;;;;;;;28.35;38.64;100948.00;5021776;28;20041;-81
2021/07/26 10:08:07;;;;;;;14.27;7.28;;;;;;;28.42;38.53;100947.88;5041104;28;20026;-80
2021/07/26 10:10:37;;;;;;;14.55;7.15;;;;;;;28.69;38.02;100944.91;5040323;28;20025;-83
2021/07/26 10:13:04;;;;;;;12.43;7.78;;;;;;;28.77;38.11;100939.94;5037796;28;20119;-82
2021/07/26 10:15:32;;;;;;;11.30;7.30;;;;;;;28.84;37.72;100939.78;5040397;28;20395;-83
2021/07/26 10:17:58;;;;;;;20.42;7.97;;;;;;;29.03;37.67;100949.47;5040005;28;20031;-80
2021/07/26 10:20:29;;;;;;;12.90;7.07;;;;;;;28.99;37.31;100949.53;5038857;28;20033;-81
2021/07/26 10:23:18;;;;;;;11.85;7.78;;;;;;;29.06;37.06;100957.03;5029087;28;20334;-82
2021/07/26 10:25:58;;;;;;;11.02;7.32;;;;;;;29.24;36.69;100945.38;5037602;28;20539;-80
2021/07/26 10:28:30;;;;;;;10.73;6.80;;;;;;;29.20;36.75;100934.22;5038758;28;20148;-81
2021/07/26 10:30:56;;;;;;;11.25;6.93;;;;;;;29.42;36.50;100939.38;5035471;28;20116;-82
2021/07/26 10:33:23;;;;;;;13.40;6.93;;;;;;;29.61;35.81;100941.31;5023951;28;20017;-80
2021/07/26 10:35:54;;;;;;;12.00;7.72;;;;;;;29.63;36.29;100944.50;5038301;28;20036;-80
2021/07/26 10:38:43;;;;;;;46.08;10.32;;;;;;;29.60;36.08;100950.22;5036284;28;20056;-79
2021/07/26 10:41:09;;;;;;;21.33;8.20;;;;;;;29.67;36.13;100945.22;5039492;28;20025;-80
2021/07/26 10:43:55;;;;;;;13.45;7.13;;;;;;;29.60;35.88;100939.75;5038572;28;20033;-81
2021/07/26 10:46:21;;;;;;;9.75;6.82;;;;;;;29.56;36.28;100953.91;5036781;28;20051;-81
2021/07/26 10:48:53;;;;;;;10.18;6.53;;;;;;;29.82;35.91;100948.47;5025795;28;20033;-81
2021/07/26 10:51:42;;;;;;;12.32;7.22;;;;;;;29.33;36.35;100942.00;5039688;28;20033;-80
2021/07/26 10:54:08;;;;;;;12.88;8.57;;;;;;;29.80;35.72;100940.47;5023259;28;20072;-81
2021/07/26 10:57:02;;;;;;;14.82;8.65;;;;;;;29.65;36.08;100946.88;5037776;28;20037;-80
2021/07/26 10:59:29;;;;;;;23.83;8.57;;;;;;;29.98;35.49;100933.56;5053870;28;20021;-81
2021/07/26 11:01:59;;;;;;;20.17;8.73;;;;;;;30.14;35.85;100929.97;5055116;28;20025;-81
2021/07/26 11:04:31;;;;;;;12.70;7.80;;;;;;;30.38;35.46;100937.75;5055338;28;20104;-81
2021/07/26 11:06:59;;;;;;;17.77;8.52;;;;;;;30.21;35.44;100930.56;5055023;28;20029;-81
2021/07/26 11:09:27;;;;;;;14.60;8.68;;;;;;;30.73;35.04;100921.09;5054941;28;20383;-80
2021/07/26 11:11:53;;;;;;;15.60;8.15;;;;;;;30.87;34.80;100923.47;5053581;28;20029;-81
2021/07/26 11:14:20;;;;;;;13.20;9.48;;;;;;;31.05;34.12;100917.28;5054815;28;20021;-81
2021/07/26 11:16:48;;;;;;;11.23;8.48;;;;;;;31.31;33.60;100914.53;5053567;28;20483;-81